sensor_id;sensor_type;location;lat;lon;timestamp;temperature;humidity
21805;DHT22;11064;47.102;15.452;2023-03-14T05:01:50;8.70;99.90
21805;DHT22;11064;47.102;15.452;2023-03-14T05:04:16;9.00;99.90
21805;DHT22;11064;47.102;15.452;2023-03-14T05:06:42;9.00;99.90
21805;DHT22;11064;47.102;15.452;2023-03-14T05:09:08;9.00;99.90
21805;DHT22;11064;47.102;15.452;2023-03-14T05:11:33;8.90;99.90
21805;DHT22;11064;47.102;15.452;2023-03-14T05:13:59;8.90;99.90
21805;DHT22;11064;47.102;15.452;2023-03-14T05:16:25;8.90;99.90
21805;DHT22;11064;47.102;15.452;2023-03-14T05:18:51;9.10;99.90
21805;DHT22;11064;47.102;15.452;2023-03-14T05:21:17;9.30;99.90
21805;DHT22;11064;47.102;15.452;2023-03-14T05:23:42;9.30;99.90
21805;DHT22;11064;47.102;15.452;2023-03-14T05:26:08;9.30;99.90
21805;DHT22;11064;47.102;15.452;2023-03-14T05:28:34;9.40;99.90
21805;DHT22;11064;47.102;15.452;2023-03-14T05:31:00;9.50;99.90
21805;DHT22;11064;47.102;15.452;2023-03-14T05:33:25;9.60;99.90
21805;DHT22;11064;47.102;15.452;2023-03-14T05:35:51;9.50;99.90
21805;DHT22;11064;47.102;15.452;2023-03-14T05:38:17;9.50;99.90
21805;DHT22;11064;47.102;15.452;2023-03-14T05:40:45;9.70;99.90
21805;DHT22;11064;47.102;15.452;2023-03-14T05:43:12;9.70;99.90
21805;DHT22;11064;47.102;15.452;2023-03-14T05:45:38;9.70;99.90
21805;DHT22;11064;47.102;15.452;2023-03-14T05:48:04;9.60;99.90
21805;DHT22;11064;47.102;15.452;2023-03-14T05:50:30;9.40;99.90
21805;DHT22;11064;47.102;15.452;2023-03-14T05:52:56;9.30;99.90
21805;DHT22;11064;47.102;15.452;2023-03-14T05:55:22;9.20;99.90
21805;DHT22;11064;47.102;15.452;2023-03-14T05:57:48;9.30;99.90
21805;DHT22;11064;47.102;15.452;2023-03-14T06:00:14;9.40;99.90
21805;DHT22;11064;47.102;15.452;2023-03-14T06:02:40;9.40;99.90
21805;DHT22;11064;47.102;15.452;2023-03-14T06:05:07;9.50;99.90
21805;DHT22;11064;47.102;15.452;2023-03-14T06:07:33;9.50;99.90
21805;DHT22;11064;47.102;15.452;2023-03-14T06:09:59;9.60;99.90
21805;DHT22;11064;47.102;15.452;2023-03-14T06:12:24;9.70;99.90
21805;DHT22;11064;47.102;15.452;2023-03-14T06:14:50;9.90;99.90
21805;DHT22;11064;47.102;15.452;2023-03-14T06:17:16;10.00;99.90
21805;DHT22;11064;47.102;15.452;2023-03-14T06:19:42;10.30;99.90
21805;DHT22;11064;47.102;15.452;2023-03-14T06:22:07;10.50;99.90
21805;DHT22;11064;47.102;15.452;2023-03-14T06:24:33;10.60;99.90
21805;DHT22;11064;47.102;15.452;2023-03-14T06:26:59;10.80;99.90
21805;DHT22;11064;47.102;15.452;2023-03-14T06:29:25;11.00;99.90
21805;DHT22;11064;47.102;15.452;2023-03-14T06:31:51;11.10;99.90
21805;DHT22;11064;47.102;15.452;2023-03-14T06:34:16;11.20;99.90
21805;DHT22;11064;47.102;15.452;2023-03-14T06:36:42;11.20;99.90
21805;DHT22;11064;47.102;15.452;2023-03-14T06:39:08;11.20;99.90
21805;DHT22;11064;47.102;15.452;2023-03-14T06:41:34;11.30;99.90
21805;DHT22;11064;47.102;15.452;2023-03-14T06:44:00;11.30;99.90
21805;DHT22;11064;47.102;15.452;2023-03-14T06:46:25;11.20;99.90
21805;DHT22;11064;47.102;15.452;2023-03-14T06:48:51;11.20;99.90
21805;DHT22;11064;47.102;15.452;2023-03-14T06:51:17;11.30;99.90
21805;DHT22;11064;47.102;15.452;2023-03-14T06:53:43;11.30;99.90
21805;DHT22;11064;47.102;15.452;2023-03-14T06:56:09;11.40;99.90
21805;DHT22;11064;47.102;15.452;2023-03-14T06:58:35;11.40;99.90
21805;DHT22;11064;47.102;15.452;2023-03-14T07:01:01;11.50;99.90
21805;DHT22;11064;47.102;15.452;2023-03-14T07:03:27;11.50;99.90
21805;DHT22;11064;47.102;15.452;2023-03-14T07:05:53;11.50;99.90
21805;DHT22;11064;47.102;15.452;2023-03-14T07:08:19;11.50;99.90
21805;DHT22;11064;47.102;15.452;2023-03-14T07:10:45;11.50;99.90
21805;DHT22;11064;47.102;15.452;2023-03-14T07:13:11;11.60;99.90
21805;DHT22;11064;47.102;15.452;2023-03-14T07:15:36;11.80;99.90
21805;DHT22;11064;47.102;15.452;2023-03-14T07:18:02;12.00;99.90
21805;DHT22;11064;47.102;15.452;2023-03-14T07:20:28;12.00;99.90
21805;DHT22;11064;47.102;15.452;2023-03-14T07:22:55;12.10;99.90
21805;DHT22;11064;47.102;15.452;2023-03-14T07:25:21;12.30;99.90
21805;DHT22;11064;47.102;15.452;2023-03-14T07:27:47;12.50;99.90
21805;DHT22;11064;47.102;15.452;2023-03-14T07:30:15;12.80;99.90
21805;DHT22;11064;47.102;15.452;2023-03-14T07:32:41;12.80;99.90
21805;DHT22;11064;47.102;15.452;2023-03-14T07:35:08;12.50;99.90
21805;DHT22;11064;47.102;15.452;2023-03-14T07:37:34;12.50;99.90
21805;DHT22;11064;47.102;15.452;2023-03-14T07:39:59;12.60;99.90
21805;DHT22;11064;47.102;15.452;2023-03-14T07:42:25;12.70;99.90
21805;DHT22;11064;47.102;15.452;2023-03-14T07:44:51;12.80;99.90
21805;DHT22;11064;47.102;15.452;2023-03-14T07:47:17;13.00;99.90
21805;DHT22;11064;47.102;15.452;2023-03-14T07:49:43;13.30;99.90
21805;DHT22;11064;47.102;15.452;2023-03-14T07:52:09;13.50;99.90
21805;DHT22;11064;47.102;15.452;2023-03-14T07:54:34;13.50;99.90
21805;DHT22;11064;47.102;15.452;2023-03-14T07:57:01;13.30;99.90
21805;DHT22;11064;47.102;15.452;2023-03-14T07:59:27;13.30;99.90
21805;DHT22;11064;47.102;15.452;2023-03-14T08:01:53;13.40;99.90
21805;DHT22;11064;47.102;15.452;2023-03-14T08:04:19;13.60;99.90
21805;DHT22;11064;47.102;15.452;2023-03-14T08:06:45;13.80;99.90
21805;DHT22;11064;47.102;15.452;2023-03-14T08:09:10;13.70;99.90
21805;DHT22;11064;47.102;15.452;2023-03-14T08:11:36;14.00;99.90
21805;DHT22;11064;47.102;15.452;2023-03-14T08:14:02;14.20;99.90
21805;DHT22;11064;47.102;15.452;2023-03-14T08:16:28;14.20;99.90
21805;DHT22;11064;47.102;15.452;2023-03-14T08:18:54;14.30;99.90
21805;DHT22;11064;47.102;15.452;2023-03-14T08:21:19;14.50;99.90
21805;DHT22;11064;47.102;15.452;2023-03-14T08:23:45;14.30;99.90
21805;DHT22;11064;47.102;15.452;2023-03-14T08:26:11;14.50;99.90
21805;DHT22;11064;47.102;15.452;2023-03-14T08:28:37;14.60;99.90
21805;DHT22;11064;47.102;15.452;2023-03-14T08:31:03;14.60;99.90
21805;DHT22;11064;47.102;15.452;2023-03-14T08:33:29;14.10;99.90
21805;DHT22;11064;47.102;15.452;2023-03-14T08:35:56;14.10;99.90
21805;DHT22;11064;47.102;15.452;2023-03-14T08:38:22;14.00;99.90
21805;DHT22;11064;47.102;15.452;2023-03-14T08:40:49;13.90;99.90
21805;DHT22;11064;47.102;15.452;2023-03-14T08:43:15;13.80;99.90
21805;DHT22;11064;47.102;15.452;2023-03-14T08:45:41;13.70;99.90
21805;DHT22;11064;47.102;15.452;2023-03-14T08:48:07;13.90;99.90
21805;DHT22;11064;47.102;15.452;2023-03-14T08:50:33;14.10;99.90
21805;DHT22;11064;47.102;15.452;2023-03-14T08:52:59;14.30;99.90
21805;DHT22;11064;47.102;15.452;2023-03-14T08:55:27;14.50;99.90
21805;DHT22;11064;47.102;15.452;2023-03-14T08:57:53;14.50;99.90
21805;DHT22;11064;47.102;15.452;2023-03-14T09:00:19;14.80;99.70
21805;DHT22;11064;47.102;15.452;2023-03-14T09:02:45;15.20;98.70
21805;DHT22;11064;47.102;15.452;2023-03-14T09:05:12;15.50;97.80
21805;DHT22;11064;47.102;15.452;2023-03-14T09:07:39;15.50;96.50
21805;DHT22;11064;47.102;15.452;2023-03-14T09:10:06;15.50;96.30
21805;DHT22;11064;47.102;15.452;2023-03-14T09:12:32;15.50;96.30
21805;DHT22;11064;47.102;15.452;2023-03-14T09:14:58;15.30;96.60
21805;DHT22;11064;47.102;15.452;2023-03-14T09:17:24;15.10;97.10
21805;DHT22;11064;47.102;15.452;2023-03-14T09:19:50;15.20;96.80
21805;DHT22;11064;47.102;15.452;2023-03-14T09:22:16;15.50;96.10
21805;DHT22;11064;47.102;15.452;2023-03-14T09:24:42;16.00;95.40
21805;DHT22;11064;47.102;15.452;2023-03-14T09:27:08;15.80;95.20
21805;DHT22;11064;47.102;15.452;2023-03-14T09:29:34;15.60;95.10
21805;DHT22;11064;47.102;15.452;2023-03-14T09:32:00;15.90;94.70
21805;DHT22;11064;47.102;15.452;2023-03-14T09:34:26;16.10;95.00
21805;DHT22;11064;47.102;15.452;2023-03-14T09:36:52;16.20;93.90
21805;DHT22;11064;47.102;15.452;2023-03-14T09:39:19;16.50;93.40
21805;DHT22;11064;47.102;15.452;2023-03-14T09:41:47;16.40;92.50
21805;DHT22;11064;47.102;15.452;2023-03-14T09:44:32;16.20;92.70
21805;DHT22;11064;47.102;15.452;2023-03-14T09:47:07;15.40;94.30
21805;DHT22;11064;47.102;15.452;2023-03-14T09:49:42;14.90;95.50
21805;DHT22;11064;47.102;15.452;2023-03-14T09:54:46;14.30;96.70
21805;DHT22;11064;47.102;15.452;2023-03-14T09:57:18;14.10;96.70
21805;DHT22;11064;47.102;15.452;2023-03-14T09:59:46;14.00;97.50
21805;DHT22;11064;47.102;15.452;2023-03-14T10:02:24;13.90;98.30
21805;DHT22;11064;47.102;15.452;2023-03-14T10:04:52;13.80;98.60
21805;DHT22;11064;47.102;15.452;2023-03-14T10:07:31;13.70;98.70
21805;DHT22;11064;47.102;15.452;2023-03-14T10:09:58;13.70;98.50
21805;DHT22;11064;47.102;15.452;2023-03-14T10:12:35;13.60;98.60
21805;DHT22;11064;47.102;15.452;2023-03-14T10:15:11;13.70;99.50
21805;DHT22;11064;47.102;15.452;2023-03-14T10:18:00;13.80;99.90
21805;DHT22;11064;47.102;15.452;2023-03-14T10:20:35;14.10;99.40
21805;DHT22;11064;47.102;15.452;2023-03-14T10:23:07;14.50;98.90
21805;DHT22;11064;47.102;15.452;2023-03-14T10:28:31;16.30;94.70
21805;DHT22;11064;47.102;15.452;2023-03-14T10:30:59;16.90;92.10
21805;DHT22;11064;47.102;15.452;2023-03-14T10:33:28;17.00;92.00
21805;DHT22;11064;47.102;15.452;2023-03-14T10:35:59;17.10;90.70
21805;DHT22;11064;47.102;15.452;2023-03-14T10:38:28;17.10;90.80
21805;DHT22;11064;47.102;15.452;2023-03-14T10:40:56;17.10;90.00
21805;DHT22;11064;47.102;15.452;2023-03-14T10:43:34;17.50;87.50
21805;DHT22;11064;47.102;15.452;2023-03-14T10:46:09;18.00;84.60
21805;DHT22;11064;47.102;15.452;2023-03-14T10:48:38;18.30;81.80
21805;DHT22;11064;47.102;15.452;2023-03-14T10:53:55;17.70;79.10
21805;DHT22;11064;47.102;15.452;2023-03-14T10:56:24;17.20;79.70
21805;DHT22;11064;47.102;15.452;2023-03-14T10:58:52;16.70;81.30
21805;DHT22;11064;47.102;15.452;2023-03-14T11:01:32;16.40;84.40
21805;DHT22;11064;47.102;15.452;2023-03-14T11:04:14;16.20;86.90
21805;DHT22;11064;47.102;15.452;2023-03-14T11:14:59;15.00;83.70
21805;DHT22;11064;47.102;15.452;2023-03-14T11:23:45;15.50;78.70
21805;DHT22;11064;47.102;15.452;2023-03-14T11:29:26;15.60;76.10
21805;DHT22;11064;47.102;15.452;2023-03-14T11:32:01;15.70;76.10
21805;DHT22;11064;47.102;15.452;2023-03-14T11:34:58;16.10;73.80
21805;DHT22;11064;47.102;15.452;2023-03-14T11:37:33;16.60;71.70
21805;DHT22;11064;47.102;15.452;2023-03-14T11:40:23;17.30;69.00
21805;DHT22;11064;47.102;15.452;2023-03-14T11:43:17;18.00;65.30
21805;DHT22;11064;47.102;15.452;2023-03-14T11:45:48;18.60;62.40
21805;DHT22;11064;47.102;15.452;2023-03-14T11:50:55;18.60;59.80
21805;DHT22;11064;47.102;15.452;2023-03-14T11:55:57;17.60;64.10
21805;DHT22;11064;47.102;15.452;2023-03-14T11:58:29;17.20;63.90
21805;DHT22;11064;47.102;15.452;2023-03-14T12:00:57;16.70;65.80
21805;DHT22;11064;47.102;15.452;2023-03-14T12:03:55;16.40;66.60
21805;DHT22;11064;47.102;15.452;2023-03-14T12:06:41;16.20;66.20
21805;DHT22;11064;47.102;15.452;2023-03-14T12:09:10;16.40;68.40
21805;DHT22;11064;47.102;15.452;2023-03-14T12:16:47;16.50;65.70
21805;DHT22;11064;47.102;15.452;2023-03-14T12:19:27;16.80;65.00
21805;DHT22;11064;47.102;15.452;2023-03-14T12:24:51;17.90;61.80
21805;DHT22;11064;47.102;15.452;2023-03-14T12:35:48;17.10;59.90
21805;DHT22;11064;47.102;15.452;2023-03-14T12:43:51;16.00;62.90
21805;DHT22;11064;47.102;15.452;2023-03-14T12:46:27;15.50;64.30
21805;DHT22;11064;47.102;15.452;2023-03-14T12:51:29;14.70;67.30
21805;DHT22;11064;47.102;15.452;2023-03-14T12:54:19;14.70;68.50
21805;DHT22;11064;47.102;15.452;2023-03-14T12:59:36;14.80;68.60
21805;DHT22;11064;47.102;15.452;2023-03-14T13:04:49;14.60;68.80
21805;DHT22;11064;47.102;15.452;2023-03-14T13:12:49;14.30;70.80
21805;DHT22;11064;47.102;15.452;2023-03-14T13:15:23;14.30;72.20
21805;DHT22;11064;47.102;15.452;2023-03-14T13:17:54;14.50;71.20
21805;DHT22;11064;47.102;15.452;2023-03-14T13:23:26;14.70;71.80
21805;DHT22;11064;47.102;15.452;2023-03-14T13:25:53;14.70;71.00
21805;DHT22;11064;47.102;15.452;2023-03-14T13:28:19;14.60;71.70
21805;DHT22;11064;47.102;15.452;2023-03-14T13:30:50;14.40;72.50
21805;DHT22;11064;47.102;15.452;2023-03-14T13:33:21;14.30;74.70
21805;DHT22;11064;47.102;15.452;2023-03-14T13:36:08;14.10;75.90
21805;DHT22;11064;47.102;15.452;2023-03-14T13:38:36;14.00;76.50
21805;DHT22;11064;47.102;15.452;2023-03-14T13:41:06;13.90;77.80
21805;DHT22;11064;47.102;15.452;2023-03-14T13:43:36;13.80;77.80
21805;DHT22;11064;47.102;15.452;2023-03-14T13:46:06;13.70;78.10
21805;DHT22;11064;47.102;15.452;2023-03-14T13:48:35;13.60;78.60
21805;DHT22;11064;47.102;15.452;2023-03-14T13:51:07;13.60;78.40
21805;DHT22;11064;47.102;15.452;2023-03-14T13:53:51;13.50;79.50
21805;DHT22;11064;47.102;15.452;2023-03-14T13:56:19;13.50;79.70
21805;DHT22;11064;47.102;15.452;2023-03-14T13:58:45;13.50;80.10
21805;DHT22;11064;47.102;15.452;2023-03-14T14:01:18;13.60;80.40
21805;DHT22;11064;47.102;15.452;2023-03-14T14:03:47;13.60;80.50
21805;DHT22;11064;47.102;15.452;2023-03-14T14:09:00;13.60;80.80
21805;DHT22;11064;47.102;15.452;2023-03-14T14:11:37;13.50;80.30
21805;DHT22;11064;47.102;15.452;2023-03-14T14:14:08;13.50;80.90
21805;DHT22;11064;47.102;15.452;2023-03-14T14:16:36;13.50;81.40
21805;DHT22;11064;47.102;15.452;2023-03-14T14:19:03;13.50;82.30
21805;DHT22;11064;47.102;15.452;2023-03-14T14:21:29;13.40;82.10
21805;DHT22;11064;47.102;15.452;2023-03-14T14:23:57;13.40;82.00
21805;DHT22;11064;47.102;15.452;2023-03-14T14:26:23;13.30;82.50
21805;DHT22;11064;47.102;15.452;2023-03-14T14:29:05;13.20;82.70
21805;DHT22;11064;47.102;15.452;2023-03-14T14:31:31;13.20;82.90
21805;DHT22;11064;47.102;15.452;2023-03-14T14:34:03;13.30;82.80
21805;DHT22;11064;47.102;15.452;2023-03-14T14:36:47;13.40;82.80
21805;DHT22;11064;47.102;15.452;2023-03-14T14:39:21;13.60;82.30
21805;DHT22;11064;47.102;15.452;2023-03-14T14:41:50;13.70;82.00
21805;DHT22;11064;47.102;15.452;2023-03-14T14:44:21;13.80;81.90
21805;DHT22;11064;47.102;15.452;2023-03-14T14:46:54;13.80;81.80
21805;DHT22;11064;47.102;15.452;2023-03-14T14:49:20;13.80;81.90
21805;DHT22;11064;47.102;15.452;2023-03-14T14:51:50;13.80;80.90
21805;DHT22;11064;47.102;15.452;2023-03-14T14:54:18;13.80;81.50
21805;DHT22;11064;47.102;15.452;2023-03-14T14:57:03;13.80;81.60
21805;DHT22;11064;47.102;15.452;2023-03-14T14:59:29;13.70;81.40
21805;DHT22;11064;47.102;15.452;2023-03-14T15:02:00;13.70;81.40
21805;DHT22;11064;47.102;15.452;2023-03-14T15:04:26;13.70;80.90
21805;DHT22;11064;47.102;15.452;2023-03-14T15:06:55;13.70;81.30
21805;DHT22;11064;47.102;15.452;2023-03-14T15:09:21;13.60;81.00
21805;DHT22;11064;47.102;15.452;2023-03-14T15:11:47;13.70;80.90
21805;DHT22;11064;47.102;15.452;2023-03-14T15:14:13;13.70;80.50
21805;DHT22;11064;47.102;15.452;2023-03-14T15:16:40;13.70;80.60
21805;DHT22;11064;47.102;15.452;2023-03-14T15:19:20;13.90;80.20
21805;DHT22;11064;47.102;15.452;2023-03-14T15:21:47;14.10;79.10
21805;DHT22;11064;47.102;15.452;2023-03-14T15:24:13;14.10;78.60
21805;DHT22;11064;47.102;15.452;2023-03-14T15:26:38;14.00;79.60
21805;DHT22;11064;47.102;15.452;2023-03-14T15:29:04;13.90;80.40
21805;DHT22;11064;47.102;15.452;2023-03-14T15:31:34;13.90;79.90
21805;DHT22;11064;47.102;15.452;2023-03-14T15:34:00;13.90;79.70
21805;DHT22;11064;47.102;15.452;2023-03-14T15:36:31;13.90;80.10
21805;DHT22;11064;47.102;15.452;2023-03-14T15:38:58;13.90;80.70
21805;DHT22;11064;47.102;15.452;2023-03-14T15:41:26;13.80;80.10
21805;DHT22;11064;47.102;15.452;2023-03-14T15:43:53;13.70;80.30
21805;DHT22;11064;47.102;15.452;2023-03-14T15:46:20;13.70;80.90
21805;DHT22;11064;47.102;15.452;2023-03-14T15:48:48;13.60;80.70
21805;DHT22;11064;47.102;15.452;2023-03-14T15:51:15;13.50;79.40
21805;DHT22;11064;47.102;15.452;2023-03-14T15:53:41;13.40;80.90
21805;DHT22;11064;47.102;15.452;2023-03-14T15:56:13;13.20;81.30
21805;DHT22;11064;47.102;15.452;2023-03-14T15:58:39;13.10;80.20
21805;DHT22;11064;47.102;15.452;2023-03-14T16:01:07;13.00;80.60
21805;DHT22;11064;47.102;15.452;2023-03-14T16:03:37;12.90;79.80
21805;DHT22;11064;47.102;15.452;2023-03-14T16:06:03;12.90;80.70
21805;DHT22;11064;47.102;15.452;2023-03-14T16:08:29;12.80;81.30
21805;DHT22;11064;47.102;15.452;2023-03-14T16:10:56;12.70;83.20
21805;DHT22;11064;47.102;15.452;2023-03-14T16:13:23;12.60;84.10
21805;DHT22;11064;47.102;15.452;2023-03-14T16:15:56;12.50;84.70
21805;DHT22;11064;47.102;15.452;2023-03-14T16:18:23;12.50;86.00
21805;DHT22;11064;47.102;15.452;2023-03-14T16:21:01;12.40;87.00
21805;DHT22;11064;47.102;15.452;2023-03-14T16:23:28;12.20;88.40
21805;DHT22;11064;47.102;15.452;2023-03-14T16:25:54;12.10;89.20
21805;DHT22;11064;47.102;15.452;2023-03-14T16:28:21;12.00;90.00
21805;DHT22;11064;47.102;15.452;2023-03-14T16:30:48;11.90;90.10
21805;DHT22;11064;47.102;15.452;2023-03-14T16:33:15;11.90;90.20
21805;DHT22;11064;47.102;15.452;2023-03-14T16:35:41;11.80;90.60
21805;DHT22;11064;47.102;15.452;2023-03-14T16:38:07;11.70;90.90
21805;DHT22;11064;47.102;15.452;2023-03-14T16:40:33;11.50;91.10
21805;DHT22;11064;47.102;15.452;2023-03-14T16:42:59;11.40;91.30
21805;DHT22;11064;47.102;15.452;2023-03-14T16:45:28;11.30;92.10
21805;DHT22;11064;47.102;15.452;2023-03-14T16:47:54;11.20;92.20
21805;DHT22;11064;47.102;15.452;2023-03-14T16:50:20;11.10;91.90
21805;DHT22;11064;47.102;15.452;2023-03-14T16:52:46;11.10;92.10
21805;DHT22;11064;47.102;15.452;2023-03-14T16:55:14;11.00;92.90
21805;DHT22;11064;47.102;15.452;2023-03-14T16:57:40;11.00;92.60
21805;DHT22;11064;47.102;15.452;2023-03-14T17:00:06;10.90;93.10
21805;DHT22;11064;47.102;15.452;2023-03-14T17:02:34;10.80;93.30
21805;DHT22;11064;47.102;15.452;2023-03-14T17:05:00;10.80;93.00
21805;DHT22;11064;47.102;15.452;2023-03-14T17:07:26;10.70;93.30
21805;DHT22;11064;47.102;15.452;2023-03-14T17:09:52;10.70;93.90
21805;DHT22;11064;47.102;15.452;2023-03-14T17:12:19;10.60;93.80
21805;DHT22;11064;47.102;15.452;2023-03-14T17:14:45;10.60;93.30
21805;DHT22;11064;47.102;15.452;2023-03-14T17:17:11;10.50;93.80
21805;DHT22;11064;47.102;15.452;2023-03-14T17:19:37;10.50;93.70
21805;DHT22;11064;47.102;15.452;2023-03-14T17:22:03;10.40;93.40
21805;DHT22;11064;47.102;15.452;2023-03-14T17:24:29;10.40;94.10
21805;DHT22;11064;47.102;15.452;2023-03-14T17:26:55;10.40;94.20
21805;DHT22;11064;47.102;15.452;2023-03-14T17:29:21;10.30;94.00
21805;DHT22;11064;47.102;15.452;2023-03-14T17:31:47;10.30;94.30
21805;DHT22;11064;47.102;15.452;2023-03-14T17:34:13;10.30;94.60
21805;DHT22;11064;47.102;15.452;2023-03-14T17:36:39;10.20;94.20
21805;DHT22;11064;47.102;15.452;2023-03-14T17:39:05;10.20;94.20
21805;DHT22;11064;47.102;15.452;2023-03-14T17:41:33;10.20;94.40
21805;DHT22;11064;47.102;15.452;2023-03-14T17:43:59;10.10;95.10
21805;DHT22;11064;47.102;15.452;2023-03-14T17:46:26;10.00;95.80
21805;DHT22;11064;47.102;15.452;2023-03-14T17:48:52;9.90;96.30
21805;DHT22;11064;47.102;15.452;2023-03-14T17:51:19;9.80;96.80
21805;DHT22;11064;47.102;15.452;2023-03-14T17:53:46;9.80;97.10
21805;DHT22;11064;47.102;15.452;2023-03-14T17:56:11;9.80;97.10
21805;DHT22;11064;47.102;15.452;2023-03-14T17:58:38;9.70;97.30
21805;DHT22;11064;47.102;15.452;2023-03-14T18:01:09;9.70;97.40
21805;DHT22;11064;47.102;15.452;2023-03-14T18:03:35;9.70;98.00
21805;DHT22;11064;47.102;15.452;2023-03-14T18:06:07;9.60;98.30
21805;DHT22;11064;47.102;15.452;2023-03-14T18:08:36;9.60;98.70
21805;DHT22;11064;47.102;15.452;2023-03-14T18:11:03;9.50;99.10
21805;DHT22;11064;47.102;15.452;2023-03-14T18:13:31;9.50;99.40
21805;DHT22;11064;47.102;15.452;2023-03-14T18:15:57;9.50;99.50
21805;DHT22;11064;47.102;15.452;2023-03-14T18:18:24;9.50;99.90
21805;DHT22;11064;47.102;15.452;2023-03-14T18:20:53;9.40;99.90
21805;DHT22;11064;47.102;15.452;2023-03-14T18:23:20;9.40;99.90
21805;DHT22;11064;47.102;15.452;2023-03-14T18:25:48;9.50;99.90
21805;DHT22;11064;47.102;15.452;2023-03-14T18:28:14;9.40;99.90
21805;DHT22;11064;47.102;15.452;2023-03-14T18:30:42;9.40;99.90
21805;DHT22;11064;47.102;15.452;2023-03-14T18:33:08;9.40;99.90
21805;DHT22;11064;47.102;15.452;2023-03-14T18:35:38;9.30;99.90
21805;DHT22;11064;47.102;15.452;2023-03-14T18:38:04;9.40;99.90
21805;DHT22;11064;47.102;15.452;2023-03-14T18:40:33;9.40;99.90
21805;DHT22;11064;47.102;15.452;2023-03-14T18:42:59;9.30;99.90
21805;DHT22;11064;47.102;15.452;2023-03-14T18:45:30;9.30;99.90
21805;DHT22;11064;47.102;15.452;2023-03-14T18:47:58;9.30;99.90
21805;DHT22;11064;47.102;15.452;2023-03-14T18:50:24;9.30;99.90
21805;DHT22;11064;47.102;15.452;2023-03-14T18:52:50;9.30;99.90
21805;DHT22;11064;47.102;15.452;2023-03-14T18:55:16;9.30;99.90
21805;DHT22;11064;47.102;15.452;2023-03-14T18:57:42;9.10;99.90
21805;DHT22;11064;47.102;15.452;2023-03-14T19:00:09;9.00;99.90
21805;DHT22;11064;47.102;15.452;2023-03-14T19:02:37;8.90;99.90
21805;DHT22;11064;47.102;15.452;2023-03-14T19:05:04;8.90;99.90
21805;DHT22;11064;47.102;15.452;2023-03-14T19:07:30;8.80;99.90
21805;DHT22;11064;47.102;15.452;2023-03-14T19:09:59;8.70;99.90
21805;DHT22;11064;47.102;15.452;2023-03-14T19:12:27;8.60;99.90
21805;DHT22;11064;47.102;15.452;2023-03-14T19:14:54;8.50;99.90
21805;DHT22;11064;47.102;15.452;2023-03-14T19:17:20;8.50;99.90
21805;DHT22;11064;47.102;15.452;2023-03-14T19:19:46;8.50;99.90
21805;DHT22;11064;47.102;15.452;2023-03-14T19:22:12;8.50;99.90
21805;DHT22;11064;47.102;15.452;2023-03-14T19:24:39;8.40;99.90
21805;DHT22;11064;47.102;15.452;2023-03-14T19:27:05;8.40;99.90
21805;DHT22;11064;47.102;15.452;2023-03-14T19:29:31;8.30;99.90
21805;DHT22;11064;47.102;15.452;2023-03-14T19:32:04;8.30;99.90
21805;DHT22;11064;47.102;15.452;2023-03-14T19:34:30;8.30;99.90
21805;DHT22;11064;47.102;15.452;2023-03-14T19:36:56;8.30;99.90
21805;DHT22;11064;47.102;15.452;2023-03-14T19:39:23;8.60;99.90
21805;DHT22;11064;47.102;15.452;2023-03-14T19:41:49;8.90;99.90
21805;DHT22;11064;47.102;15.452;2023-03-14T19:44:23;9.20;99.90
21805;DHT22;11064;47.102;15.452;2023-03-14T19:46:49;9.30;99.90
21805;DHT22;11064;47.102;15.452;2023-03-14T19:49:15;9.40;99.90
21805;DHT22;11064;47.102;15.452;2023-03-14T19:51:42;9.40;99.90
21805;DHT22;11064;47.102;15.452;2023-03-14T19:54:08;9.30;99.90
21805;DHT22;11064;47.102;15.452;2023-03-14T19:56:35;9.40;99.90
21805;DHT22;11064;47.102;15.452;2023-03-14T19:59:02;9.60;99.90
21805;DHT22;11064;47.102;15.452;2023-03-14T20:01:30;9.70;99.90
21805;DHT22;11064;47.102;15.452;2023-03-14T20:03:58;9.70;99.90
21805;DHT22;11064;47.102;15.452;2023-03-14T20:06:24;9.70;99.90
21805;DHT22;11064;47.102;15.452;2023-03-14T20:08:50;9.70;99.90
21805;DHT22;11064;47.102;15.452;2023-03-14T20:11:17;9.70;99.90
21805;DHT22;11064;47.102;15.452;2023-03-14T20:13:43;9.80;99.00
21805;DHT22;11064;47.102;15.452;2023-03-14T20:16:10;9.80;98.90
21805;DHT22;11064;47.102;15.452;2023-03-14T20:18:36;9.80;98.60
21805;DHT22;11064;47.102;15.452;2023-03-14T20:21:08;9.80;98.00
21805;DHT22;11064;47.102;15.452;2023-03-14T20:23:34;9.80;97.50
21805;DHT22;11064;47.102;15.452;2023-03-14T20:26:01;9.80;97.40
21805;DHT22;11064;47.102;15.452;2023-03-14T20:28:27;9.70;97.40
21805;DHT22;11064;47.102;15.452;2023-03-14T20:30:54;9.70;97.10
21805;DHT22;11064;47.102;15.452;2023-03-14T20:33:20;9.70;97.30
21805;DHT22;11064;47.102;15.452;2023-03-14T20:35:54;9.60;97.20
21805;DHT22;11064;47.102;15.452;2023-03-14T20:38:20;9.60;97.20
21805;DHT22;11064;47.102;15.452;2023-03-14T20:40:46;9.50;97.40
21805;DHT22;11064;47.102;15.452;2023-03-14T20:43:13;9.50;97.80
21805;DHT22;11064;47.102;15.452;2023-03-14T20:45:39;9.50;97.30
21805;DHT22;11064;47.102;15.452;2023-03-14T20:48:05;9.50;97.20
21805;DHT22;11064;47.102;15.452;2023-03-14T20:50:31;9.40;97.80
21805;DHT22;11064;47.102;15.452;2023-03-14T20:52:58;9.40;97.60
21805;DHT22;11064;47.102;15.452;2023-03-14T20:55:24;9.30;97.70
21805;DHT22;11064;47.102;15.452;2023-03-14T20:57:50;9.30;97.20
21805;DHT22;11064;47.102;15.452;2023-03-14T21:00:16;9.20;98.20
21805;DHT22;11064;47.102;15.452;2023-03-14T21:02:42;9.20;97.20
21805;DHT22;11064;47.102;15.452;2023-03-14T21:05:09;9.20;95.50
21805;DHT22;11064;47.102;15.452;2023-03-14T21:07:37;9.20;94.90
21805;DHT22;11064;47.102;15.452;2023-03-14T21:10:10;9.10;95.60
21805;DHT22;11064;47.102;15.452;2023-03-14T21:12:37;9.10;96.20
21805;DHT22;11064;47.102;15.452;2023-03-14T21:15:05;9.00;96.50
21805;DHT22;11064;47.102;15.452;2023-03-14T21:17:33;9.00;96.80
21805;DHT22;11064;47.102;15.452;2023-03-14T21:20:00;8.90;97.00
21805;DHT22;11064;47.102;15.452;2023-03-14T21:22:28;8.70;97.60
21805;DHT22;11064;47.102;15.452;2023-03-14T21:24:55;8.60;98.10
21805;DHT22;11064;47.102;15.452;2023-03-14T21:27:21;8.60;98.20
21805;DHT22;11064;47.102;15.452;2023-03-14T21:29:47;8.50;98.60
21805;DHT22;11064;47.102;15.452;2023-03-14T21:32:14;8.50;98.30
21805;DHT22;11064;47.102;15.452;2023-03-14T21:34:40;8.40;98.80
21805;DHT22;11064;47.102;15.452;2023-03-14T21:37:06;8.30;98.30
21805;DHT22;11064;47.102;15.452;2023-03-14T21:39:32;8.30;97.70